sensor_id;sensor_type;location;lat;lon;timestamp;temperature;humidity
20610;DHT22;10463;52.378;9.688;2022-11-15T00:02:23;24.80;25.70
20610;DHT22;10463;52.378;9.688;2022-11-15T00:05:27;24.80;25.70
20610;DHT22;10463;52.378;9.688;2022-11-15T00:08:31;24.80;25.80
20610;DHT22;10463;52.378;9.688;2022-11-15T00:11:35;24.80;25.80
20610;DHT22;10463;52.378;9.688;2022-11-15T00:14:38;24.80;25.80
20610;DHT22;10463;52.378;9.688;2022-11-15T00:17:43;24.80;25.80
20610;DHT22;10463;52.378;9.688;2022-11-15T00:20:46;24.70;25.70
20610;DHT22;10463;52.378;9.688;2022-11-15T00:23:50;24.70;25.70
20610;DHT22;10463;52.378;9.688;2022-11-15T00:26:53;24.80;25.80
20610;DHT22;10463;52.378;9.688;2022-11-15T00:29:57;24.70;25.70
20610;DHT22;10463;52.378;9.688;2022-11-15T00:33:04;24.70;25.70
20610;DHT22;10463;52.378;9.688;2022-11-15T00:36:09;24.70;25.70
20610;DHT22;10463;52.378;9.688;2022-11-15T00:39:14;24.70;25.60
20610;DHT22;10463;52.378;9.688;2022-11-15T00:42:17;24.70;25.60
20610;DHT22;10463;52.378;9.688;2022-11-15T00:45:21;24.70;26.10
20610;DHT22;10463;52.378;9.688;2022-11-15T00:48:26;24.70;25.60
20610;DHT22;10463;52.378;9.688;2022-11-15T00:51:30;24.70;25.50
20610;DHT22;10463;52.378;9.688;2022-11-15T00:54:34;24.70;25.50
20610;DHT22;10463;52.378;9.688;2022-11-15T00:57:37;24.60;25.40
20610;DHT22;10463;52.378;9.688;2022-11-15T01:00:41;24.60;25.40
20610;DHT22;10463;52.378;9.688;2022-11-15T01:03:46;24.60;25.40
20610;DHT22;10463;52.378;9.688;2022-11-15T01:06:49;24.60;25.40
20610;DHT22;10463;52.378;9.688;2022-11-15T01:09:53;24.60;25.90
20610;DHT22;10463;52.378;9.688;2022-11-15T01:12:57;24.60;25.40
20610;DHT22;10463;52.378;9.688;2022-11-15T01:16:07;24.60;25.40
20610;DHT22;10463;52.378;9.688;2022-11-15T01:19:12;24.50;25.30
20610;DHT22;10463;52.378;9.688;2022-11-15T01:22:16;24.50;25.30
20610;DHT22;10463;52.378;9.688;2022-11-15T01:25:19;24.50;25.30
20610;DHT22;10463;52.378;9.688;2022-11-15T01:28:23;24.40;25.20
20610;DHT22;10463;52.378;9.688;2022-11-15T01:31:26;24.40;25.20
20610;DHT22;10463;52.378;9.688;2022-11-15T01:34:31;24.40;25.80
20610;DHT22;10463;52.378;9.688;2022-11-15T01:37:34;24.40;25.30
20610;DHT22;10463;52.378;9.688;2022-11-15T01:40:38;24.30;25.30
20610;DHT22;10463;52.378;9.688;2022-11-15T01:43:41;24.30;25.80
20610;DHT22;10463;52.378;9.688;2022-11-15T01:46:47;24.30;25.40
20610;DHT22;10463;52.378;9.688;2022-11-15T01:49:56;24.30;25.90
20610;DHT22;10463;52.378;9.688;2022-11-15T01:53:01;24.30;25.40
20610;DHT22;10463;52.378;9.688;2022-11-15T01:56:12;24.20;25.40
20610;DHT22;10463;52.378;9.688;2022-11-15T01:59:18;24.20;25.40
20610;DHT22;10463;52.378;9.688;2022-11-15T02:02:23;24.20;25.40
20610;DHT22;10463;52.378;9.688;2022-11-15T02:05:29;24.20;25.40
20610;DHT22;10463;52.378;9.688;2022-11-15T02:08:33;24.20;25.50
20610;DHT22;10463;52.378;9.688;2022-11-15T02:11:36;24.20;25.50
20610;DHT22;10463;52.378;9.688;2022-11-15T02:14:42;24.20;25.50
20610;DHT22;10463;52.378;9.688;2022-11-15T02:18:02;24.20;25.50
20610;DHT22;10463;52.378;9.688;2022-11-15T02:21:24;24.10;25.40
20610;DHT22;10463;52.378;9.688;2022-11-15T02:25:03;24.10;25.50
20610;DHT22;10463;52.378;9.688;2022-11-15T02:28:47;24.10;25.50
20610;DHT22;10463;52.378;9.688;2022-11-15T02:32:01;24.10;25.50
20610;DHT22;10463;52.378;9.688;2022-11-15T02:35:15;24.10;25.50
20610;DHT22;10463;52.378;9.688;2022-11-15T02:38:27;24.10;25.60
20610;DHT22;10463;52.378;9.688;2022-11-15T02:41:39;24.10;25.60
20610;DHT22;10463;52.378;9.688;2022-11-15T02:44:46;24.00;26.00
20610;DHT22;10463;52.378;9.688;2022-11-15T02:47:55;24.00;25.50
20610;DHT22;10463;52.378;9.688;2022-11-15T02:51:01;24.00;25.50
20610;DHT22;10463;52.378;9.688;2022-11-15T02:54:05;24.00;25.50
20610;DHT22;10463;52.378;9.688;2022-11-15T02:57:14;24.00;25.50
20610;DHT22;10463;52.378;9.688;2022-11-15T03:00:20;23.90;25.60
20610;DHT22;10463;52.378;9.688;2022-11-15T03:03:48;23.90;25.60
20610;DHT22;10463;52.378;9.688;2022-11-15T03:07:01;23.80;25.60
20610;DHT22;10463;52.378;9.688;2022-11-15T03:10:12;23.80;25.60
20610;DHT22;10463;52.378;9.688;2022-11-15T03:13:26;23.80;25.70
20610;DHT22;10463;52.378;9.688;2022-11-15T03:16:37;23.70;26.30
20610;DHT22;10463;52.378;9.688;2022-11-15T03:19:45;23.70;25.90
20610;DHT22;10463;52.378;9.688;2022-11-15T03:22:50;23.60;25.90
20610;DHT22;10463;52.378;9.688;2022-11-15T03:25:56;23.60;25.90
20610;DHT22;10463;52.378;9.688;2022-11-15T03:29:06;23.60;25.90
20610;DHT22;10463;52.378;9.688;2022-11-15T03:32:13;23.50;25.90
20610;DHT22;10463;52.378;9.688;2022-11-15T03:35:23;23.50;26.00
20610;DHT22;10463;52.378;9.688;2022-11-15T03:38:29;23.50;26.00
20610;DHT22;10463;52.378;9.688;2022-11-15T03:41:39;23.50;26.10
20610;DHT22;10463;52.378;9.688;2022-11-15T03:44:50;23.40;26.10
20610;DHT22;10463;52.378;9.688;2022-11-15T03:48:01;23.40;26.10
20610;DHT22;10463;52.378;9.688;2022-11-15T03:51:08;23.40;26.20
20610;DHT22;10463;52.378;9.688;2022-11-15T03:54:13;23.40;26.20
20610;DHT22;10463;52.378;9.688;2022-11-15T03:57:16;23.40;26.40
20610;DHT22;10463;52.378;9.688;2022-11-15T04:00:20;23.40;26.50
20610;DHT22;10463;52.378;9.688;2022-11-15T04:03:24;23.40;26.50
20610;DHT22;10463;52.378;9.688;2022-11-15T04:06:29;23.30;26.50
20610;DHT22;10463;52.378;9.688;2022-11-15T04:09:32;23.30;26.50
20610;DHT22;10463;52.378;9.688;2022-11-15T04:12:37;23.30;26.50
20610;DHT22;10463;52.378;9.688;2022-11-15T04:15:42;23.20;26.60
20610;DHT22;10463;52.378;9.688;2022-11-15T04:18:46;23.20;26.60
20610;DHT22;10463;52.378;9.688;2022-11-15T04:22:11;23.20;26.70
20610;DHT22;10463;52.378;9.688;2022-11-15T04:25:33;23.20;26.70
20610;DHT22;10463;52.378;9.688;2022-11-15T04:28:37;23.20;26.70
20610;DHT22;10463;52.378;9.688;2022-11-15T04:32:01;23.10;26.80
20610;DHT22;10463;52.378;9.688;2022-11-15T04:35:05;23.10;26.80
20610;DHT22;10463;52.378;9.688;2022-11-15T04:38:11;23.10;26.90
20610;DHT22;10463;52.378;9.688;2022-11-15T04:41:14;23.10;27.00
20610;DHT22;10463;52.378;9.688;2022-11-15T04:44:18;23.10;27.00
20610;DHT22;10463;52.378;9.688;2022-11-15T04:47:21;23.00;27.00
20610;DHT22;10463;52.378;9.688;2022-11-15T04:50:25;23.00;27.10
20610;DHT22;10463;52.378;9.688;2022-11-15T04:53:30;23.00;27.70
20610;DHT22;10463;52.378;9.688;2022-11-15T04:56:34;22.90;27.20
20610;DHT22;10463;52.378;9.688;2022-11-15T04:59:37;22.90;27.30
20610;DHT22;10463;52.378;9.688;2022-11-15T05:02:40;22.90;27.30
20610;DHT22;10463;52.378;9.688;2022-11-15T05:06:03;22.90;27.30
20610;DHT22;10463;52.378;9.688;2022-11-15T05:09:09;22.80;27.30
20610;DHT22;10463;52.378;9.688;2022-11-15T05:12:12;22.80;27.40
20610;DHT22;10463;52.378;9.688;2022-11-15T05:15:16;22.80;27.40
20610;DHT22;10463;52.378;9.688;2022-11-15T05:18:20;22.80;27.40
20610;DHT22;10463;52.378;9.688;2022-11-15T05:21:23;22.80;27.80
20610;DHT22;10463;52.378;9.688;2022-11-15T05:24:28;22.80;27.30
20610;DHT22;10463;52.378;9.688;2022-11-15T05:27:32;22.80;27.20
20610;DHT22;10463;52.378;9.688;2022-11-15T05:30:35;22.80;27.70
20610;DHT22;10463;52.378;9.688;2022-11-15T05:33:40;22.80;27.10
20610;DHT22;10463;52.378;9.688;2022-11-15T05:36:44;22.80;27.10
20610;DHT22;10463;52.378;9.688;2022-11-15T05:39:50;22.80;27.00
20610;DHT22;10463;52.378;9.688;2022-11-15T05:42:53;22.90;27.10
20610;DHT22;10463;52.378;9.688;2022-11-15T05:45:58;22.90;27.00
20610;DHT22;10463;52.378;9.688;2022-11-15T05:49:05;22.90;27.00
20610;DHT22;10463;52.378;9.688;2022-11-15T05:52:12;22.90;27.00
20610;DHT22;10463;52.378;9.688;2022-11-15T05:55:18;22.90;26.90
20610;DHT22;10463;52.378;9.688;2022-11-15T05:58:22;23.00;27.00
20610;DHT22;10463;52.378;9.688;2022-11-15T06:01:26;23.00;27.00
20610;DHT22;10463;52.378;9.688;2022-11-15T06:04:30;23.00;27.00
20610;DHT22;10463;52.378;9.688;2022-11-15T06:07:34;23.00;26.90
20610;DHT22;10463;52.378;9.688;2022-11-15T06:10:39;23.00;26.90
20610;DHT22;10463;52.378;9.688;2022-11-15T06:13:45;23.00;27.00
20610;DHT22;10463;52.378;9.688;2022-11-15T06:16:49;23.10;27.00
20610;DHT22;10463;52.378;9.688;2022-11-15T06:19:52;23.10;27.00
20610;DHT22;10463;52.378;9.688;2022-11-15T06:23:00;23.10;27.00
20610;DHT22;10463;52.378;9.688;2022-11-15T06:26:05;23.00;26.90
20610;DHT22;10463;52.378;9.688;2022-11-15T06:29:09;23.10;27.00
20610;DHT22;10463;52.378;9.688;2022-11-15T06:32:12;23.00;26.90
20610;DHT22;10463;52.378;9.688;2022-11-15T06:35:16;23.10;27.00
20610;DHT22;10463;52.378;9.688;2022-11-15T06:38:19;23.10;27.00
20610;DHT22;10463;52.378;9.688;2022-11-15T06:41:24;23.10;27.10
20610;DHT22;10463;52.378;9.688;2022-11-15T06:44:27;23.10;27.30
20610;DHT22;10463;52.378;9.688;2022-11-15T06:47:31;23.00;27.30
20610;DHT22;10463;52.378;9.688;2022-11-15T06:50:34;23.00;27.50
20610;DHT22;10463;52.378;9.688;2022-11-15T06:53:38;22.90;27.60
20610;DHT22;10463;52.378;9.688;2022-11-15T06:56:43;22.80;27.60
20610;DHT22;10463;52.378;9.688;2022-11-15T06:59:46;22.70;27.70
20610;DHT22;10463;52.378;9.688;2022-11-15T07:02:50;22.70;27.80
20610;DHT22;10463;52.378;9.688;2022-11-15T07:05:55;22.60;28.00
20610;DHT22;10463;52.378;9.688;2022-11-15T07:09:02;22.50;28.00
20610;DHT22;10463;52.378;9.688;2022-11-15T07:12:07;22.40;28.20
20610;DHT22;10463;52.378;9.688;2022-11-15T07:15:11;22.40;28.30
20610;DHT22;10463;52.378;9.688;2022-11-15T07:18:15;22.40;28.80
20610;DHT22;10463;52.378;9.688;2022-11-15T07:21:18;22.40;28.30
20610;DHT22;10463;52.378;9.688;2022-11-15T07:24:22;22.30;28.70
20610;DHT22;10463;52.378;9.688;2022-11-15T07:27:27;22.40;28.10
20610;DHT22;10463;52.378;9.688;2022-11-15T07:30:30;22.40;28.00
20610;DHT22;10463;52.378;9.688;2022-11-15T07:33:35;22.40;28.00
20610;DHT22;10463;52.378;9.688;2022-11-15T07:36:38;22.50;27.90
20610;DHT22;10463;52.378;9.688;2022-11-15T07:39:42;22.50;27.90
20610;DHT22;10463;52.378;9.688;2022-11-15T07:42:46;22.60;28.40
20610;DHT22;10463;52.378;9.688;2022-11-15T07:45:56;22.60;27.80
20610;DHT22;10463;52.378;9.688;2022-11-15T07:49:00;22.60;27.80
20610;DHT22;10463;52.378;9.688;2022-11-15T07:52:04;22.60;27.80
20610;DHT22;10463;52.378;9.688;2022-11-15T07:55:10;22.70;27.80
20610;DHT22;10463;52.378;9.688;2022-11-15T07:58:16;22.70;27.80
20610;DHT22;10463;52.378;9.688;2022-11-15T08:01:19;22.80;27.80
20610;DHT22;10463;52.378;9.688;2022-11-15T08:04:23;22.80;27.80
20610;DHT22;10463;52.378;9.688;2022-11-15T08:07:29;22.90;27.80
20610;DHT22;10463;52.378;9.688;2022-11-15T08:10:34;22.90;27.70
20610;DHT22;10463;52.378;9.688;2022-11-15T08:13:40;22.90;27.70
20610;DHT22;10463;52.378;9.688;2022-11-15T08:16:43;22.90;27.70
20610;DHT22;10463;52.378;9.688;2022-11-15T08:19:47;23.00;27.80
20610;DHT22;10463;52.378;9.688;2022-11-15T08:22:51;23.00;28.30
20610;DHT22;10463;52.378;9.688;2022-11-15T08:26:00;23.00;28.30
20610;DHT22;10463;52.378;9.688;2022-11-15T08:29:06;23.00;27.80
20610;DHT22;10463;52.378;9.688;2022-11-15T08:32:11;23.10;27.80
20610;DHT22;10463;52.378;9.688;2022-11-15T08:35:15;23.10;28.30
20610;DHT22;10463;52.378;9.688;2022-11-15T08:38:18;23.10;27.80
20610;DHT22;10463;52.378;9.688;2022-11-15T08:41:26;23.20;27.80
20610;DHT22;10463;52.378;9.688;2022-11-15T08:44:32;23.20;27.80
20610;DHT22;10463;52.378;9.688;2022-11-15T08:47:35;23.30;27.90
20610;DHT22;10463;52.378;9.688;2022-11-15T08:50:39;23.30;27.90
20610;DHT22;10463;52.378;9.688;2022-11-15T08:53:42;23.30;27.80
20610;DHT22;10463;52.378;9.688;2022-11-15T08:56:46;23.40;27.90
20610;DHT22;10463;52.378;9.688;2022-11-15T08:59:51;23.40;27.90
20610;DHT22;10463;52.378;9.688;2022-11-15T09:02:54;23.40;27.90
20610;DHT22;10463;52.378;9.688;2022-11-15T09:05:59;23.50;27.90
20610;DHT22;10463;52.378;9.688;2022-11-15T09:09:03;23.50;27.90
20610;DHT22;10463;52.378;9.688;2022-11-15T09:12:08;23.60;28.00
20610;DHT22;10463;52.378;9.688;2022-11-15T09:15:13;23.60;27.90
20610;DHT22;10463;52.378;9.688;2022-11-15T09:18:17;23.60;27.90
20610;DHT22;10463;52.378;9.688;2022-11-15T09:21:20;23.70;27.90
20610;DHT22;10463;52.378;9.688;2022-11-15T09:24:24;23.70;27.90
20610;DHT22;10463;52.378;9.688;2022-11-15T09:27:27;23.80;28.00
20610;DHT22;10463;52.378;9.688;2022-11-15T09:30:32;23.80;27.90
20610;DHT22;10463;52.378;9.688;2022-11-15T09:33:36;23.80;27.90
20610;DHT22;10463;52.378;9.688;2022-11-15T09:36:39;23.90;28.40
20610;DHT22;10463;52.378;9.688;2022-11-15T09:39:43;23.90;27.80
20610;DHT22;10463;52.378;9.688;2022-11-15T09:43:17;24.00;27.90
20610;DHT22;10463;52.378;9.688;2022-11-15T09:46:38;24.00;27.80
20610;DHT22;10463;52.378;9.688;2022-11-15T09:49:51;24.00;27.80
20610;DHT22;10463;52.378;9.688;2022-11-15T09:52:44;24.10;27.80
20610;DHT22;10463;52.378;9.688;2022-11-15T09:55:39;24.10;27.80
20610;DHT22;10463;52.378;9.688;2022-11-15T09:58:33;24.10;27.80
20610;DHT22;10463;52.378;9.688;2022-11-15T10:01:33;24.20;27.90
20610;DHT22;10463;52.378;9.688;2022-11-15T10:04:18;24.20;27.90
20610;DHT22;10463;52.378;9.688;2022-11-15T10:07:13;24.20;27.90
20610;DHT22;10463;52.378;9.688;2022-11-15T10:10:04;24.30;27.90
20610;DHT22;10463;52.378;9.688;2022-11-15T10:12:53;24.30;27.90
20610;DHT22;10463;52.378;9.688;2022-11-15T10:15:38;24.30;28.40
20610;DHT22;10463;52.378;9.688;2022-11-15T10:18:30;24.40;27.90
20610;DHT22;10463;52.378;9.688;2022-11-15T10:21:23;24.40;27.90
20610;DHT22;10463;52.378;9.688;2022-11-15T10:24:12;24.50;27.90
20610;DHT22;10463;52.378;9.688;2022-11-15T10:26:57;24.50;27.90
20610;DHT22;10463;52.378;9.688;2022-11-15T10:29:47;24.50;27.90
20610;DHT22;10463;52.378;9.688;2022-11-15T10:32:34;24.60;27.90
20610;DHT22;10463;52.378;9.688;2022-11-15T10:35:25;24.60;27.90
20610;DHT22;10463;52.378;9.688;2022-11-15T10:38:12;24.60;27.90
20610;DHT22;10463;52.378;9.688;2022-11-15T10:41:07;24.70;28.00
20610;DHT22;10463;52.378;9.688;2022-11-15T10:44:18;24.70;27.90
20610;DHT22;10463;52.378;9.688;2022-11-15T10:47:22;24.70;27.90
20610;DHT22;10463;52.378;9.688;2022-11-15T10:50:30;24.80;27.90
20610;DHT22;10463;52.378;9.688;2022-11-15T10:53:22;24.80;27.90
20610;DHT22;10463;52.378;9.688;2022-11-15T10:56:12;24.80;27.90
20610;DHT22;10463;52.378;9.688;2022-11-15T10:59:00;24.80;28.40
20610;DHT22;10463;52.378;9.688;2022-11-15T11:01:48;24.90;27.80
20610;DHT22;10463;52.378;9.688;2022-11-15T11:04:49;24.90;27.80
20610;DHT22;10463;52.378;9.688;2022-11-15T11:07:37;25.00;27.80
20610;DHT22;10463;52.378;9.688;2022-11-15T11:10:22;25.00;27.80
20610;DHT22;10463;52.378;9.688;2022-11-15T11:13:34;25.00;27.70
20610;DHT22;10463;52.378;9.688;2022-11-15T11:16:38;25.10;27.70
20610;DHT22;10463;52.378;9.688;2022-11-15T11:19:58;25.10;27.70
20610;DHT22;10463;52.378;9.688;2022-11-15T11:23:00;25.10;27.70
20610;DHT22;10463;52.378;9.688;2022-11-15T11:25:55;25.20;27.70
20610;DHT22;10463;52.378;9.688;2022-11-15T11:28:53;25.20;27.60
20610;DHT22;10463;52.378;9.688;2022-11-15T11:31:45;25.20;27.60
20610;DHT22;10463;52.378;9.688;2022-11-15T11:34:45;25.20;27.50
20610;DHT22;10463;52.378;9.688;2022-11-15T11:37:45;25.30;27.50
20610;DHT22;10463;52.378;9.688;2022-11-15T11:40:37;25.30;27.40
20610;DHT22;10463;52.378;9.688;2022-11-15T11:43:30;25.30;27.40
20610;DHT22;10463;52.378;9.688;2022-11-15T11:46:48;25.30;27.30
20610;DHT22;10463;52.378;9.688;2022-11-15T11:49:43;25.40;27.30
20610;DHT22;10463;52.378;9.688;2022-11-15T11:52:34;25.40;27.30
20610;DHT22;10463;52.378;9.688;2022-11-15T11:55:26;25.40;27.30
20610;DHT22;10463;52.378;9.688;2022-11-15T11:58:19;25.40;27.30
20610;DHT22;10463;52.378;9.688;2022-11-15T12:01:16;25.40;27.20
20610;DHT22;10463;52.378;9.688;2022-11-15T12:04:08;25.40;27.20
20610;DHT22;10463;52.378;9.688;2022-11-15T12:06:57;25.40;27.20
20610;DHT22;10463;52.378;9.688;2022-11-15T12:09:49;25.40;27.10
20610;DHT22;10463;52.378;9.688;2022-11-15T12:12:42;25.40;27.10
20610;DHT22;10463;52.378;9.688;2022-11-15T12:15:40;25.40;27.10
20610;DHT22;10463;52.378;9.688;2022-11-15T12:18:26;25.40;27.00
20610;DHT22;10463;52.378;9.688;2022-11-15T12:21:18;25.50;27.10
20610;DHT22;10463;52.378;9.688;2022-11-15T12:24:11;25.50;27.00
20610;DHT22;10463;52.378;9.688;2022-11-15T12:27:03;25.40;27.00
20610;DHT22;10463;52.378;9.688;2022-11-15T12:29:52;25.50;27.00
20610;DHT22;10463;52.378;9.688;2022-11-15T12:32:50;25.50;27.00
20610;DHT22;10463;52.378;9.688;2022-11-15T12:35:39;25.50;27.00
20610;DHT22;10463;52.378;9.688;2022-11-15T12:38:55;25.50;27.00
20610;DHT22;10463;52.378;9.688;2022-11-15T12:41:41;25.50;27.00
20610;DHT22;10463;52.378;9.688;2022-11-15T12:44:59;25.50;27.00
20610;DHT22;10463;52.378;9.688;2022-11-15T12:47:45;25.40;26.90
20610;DHT22;10463;52.378;9.688;2022-11-15T12:50:54;25.40;26.90
20610;DHT22;10463;52.378;9.688;2022-11-15T12:53:39;25.50;26.90
20610;DHT22;10463;52.378;9.688;2022-11-15T12:56:25;25.50;26.90
20610;DHT22;10463;52.378;9.688;2022-11-15T12:59:10;25.50;26.90
20610;DHT22;10463;52.378;9.688;2022-11-15T13:01:59;25.50;26.90
20610;DHT22;10463;52.378;9.688;2022-11-15T13:04:45;25.50;26.90
20610;DHT22;10463;52.378;9.688;2022-11-15T13:07:56;25.50;26.90
20610;DHT22;10463;52.378;9.688;2022-11-15T13:10:45;25.50;26.90
20610;DHT22;10463;52.378;9.688;2022-11-15T13:13:44;25.50;27.00
20610;DHT22;10463;52.378;9.688;2022-11-15T13:16:30;25.50;27.10
20610;DHT22;10463;52.378;9.688;2022-11-15T13:19:15;25.50;27.10
20610;DHT22;10463;52.378;9.688;2022-11-15T13:22:04;25.50;27.10
20610;DHT22;10463;52.378;9.688;2022-11-15T13:25:18;25.50;27.20
20610;DHT22;10463;52.378;9.688;2022-11-15T13:28:18;25.60;27.30
20610;DHT22;10463;52.378;9.688;2022-11-15T13:31:26;25.60;27.30
20610;DHT22;10463;52.378;9.688;2022-11-15T13:34:25;25.60;27.30
20610;DHT22;10463;52.378;9.688;2022-11-15T13:37:28;25.60;27.30
20610;DHT22;10463;52.378;9.688;2022-11-15T13:40:25;25.60;27.30
20610;DHT22;10463;52.378;9.688;2022-11-15T13:43:31;25.70;27.40
20610;DHT22;10463;52.378;9.688;2022-11-15T13:46:18;25.70;27.30
20610;DHT22;10463;52.378;9.688;2022-11-15T13:49:07;25.70;27.30
20610;DHT22;10463;52.378;9.688;2022-11-15T13:51:53;25.70;27.30
20610;DHT22;10463;52.378;9.688;2022-11-15T13:54:45;25.70;27.30
20610;DHT22;10463;52.378;9.688;2022-11-15T13:57:39;25.80;27.40
20610;DHT22;10463;52.378;9.688;2022-11-15T14:00:34;25.80;27.90
20610;DHT22;10463;52.378;9.688;2022-11-15T14:03:23;25.80;27.40
20610;DHT22;10463;52.378;9.688;2022-11-15T14:06:12;25.80;27.80
20610;DHT22;10463;52.378;9.688;2022-11-15T14:09:34;25.80;27.30
20610;DHT22;10463;52.378;9.688;2022-11-15T14:12:30;25.90;27.30
20610;DHT22;10463;52.378;9.688;2022-11-15T14:15:31;25.90;27.30
20610;DHT22;10463;52.378;9.688;2022-11-15T14:18:43;25.90;27.30
20610;DHT22;10463;52.378;9.688;2022-11-15T14:21:28;25.90;27.30
20610;DHT22;10463;52.378;9.688;2022-11-15T14:24:18;26.00;27.80
20610;DHT22;10463;52.378;9.688;2022-11-15T14:27:18;26.00;27.30
20610;DHT22;10463;52.378;9.688;2022-11-15T14:30:05;26.00;27.30
20610;DHT22;10463;52.378;9.688;2022-11-15T14:32:51;26.00;27.30
20610;DHT22;10463;52.378;9.688;2022-11-15T14:35:38;26.00;27.20
20610;DHT22;10463;52.378;9.688;2022-11-15T14:38:23;26.00;27.20
20610;DHT22;10463;52.378;9.688;2022-11-15T14:41:18;26.00;27.20
20610;DHT22;10463;52.378;9.688;2022-11-15T14:44:04;26.00;27.20
20610;DHT22;10463;52.378;9.688;2022-11-15T14:46:50;26.00;27.20
20610;DHT22;10463;52.378;9.688;2022-11-15T14:49:35;26.00;27.20
20610;DHT22;10463;52.378;9.688;2022-11-15T14:52:26;26.00;27.10
20610;DHT22;10463;52.378;9.688;2022-11-15T14:55:17;26.10;27.20
20610;DHT22;10463;52.378;9.688;2022-11-15T14:58:04;26.10;27.20
20610;DHT22;10463;52.378;9.688;2022-11-15T15:00:49;26.10;27.20
20610;DHT22;10463;52.378;9.688;2022-11-15T15:03:35;26.10;27.20
20610;DHT22;10463;52.378;9.688;2022-11-15T15:06:20;26.10;27.20
20610;DHT22;10463;52.378;9.688;2022-11-15T15:09:05;26.10;27.20
20610;DHT22;10463;52.378;9.688;2022-11-15T15:11:49;26.10;27.10
20610;DHT22;10463;52.378;9.688;2022-11-15T15:14:34;26.10;27.20
20610;DHT22;10463;52.378;9.688;2022-11-15T15:17:18;26.10;27.10
20610;DHT22;10463;52.378;9.688;2022-11-15T15:20:07;26.10;27.10
20610;DHT22;10463;52.378;9.688;2022-11-15T15:22:52;26.10;27.00
20610;DHT22;10463;52.378;9.688;2022-11-15T15:25:38;26.10;27.00
20610;DHT22;10463;52.378;9.688;2022-11-15T15:28:22;26.10;27.00
20610;DHT22;10463;52.378;9.688;2022-11-15T15:31:08;26.10;27.00
20610;DHT22;10463;52.378;9.688;2022-11-15T15:33:54;26.10;27.00
20610;DHT22;10463;52.378;9.688;2022-11-15T15:36:40;26.10;27.00
20610;DHT22;10463;52.378;9.688;2022-11-15T15:39:24;26.10;27.00
20610;DHT22;10463;52.378;9.688;2022-11-15T15:42:09;26.10;26.90
20610;DHT22;10463;52.378;9.688;2022-11-15T15:44:53;26.10;26.90
20610;DHT22;10463;52.378;9.688;2022-11-15T15:47:38;26.10;26.90
20610;DHT22;10463;52.378;9.688;2022-11-15T15:50:26;26.10;26.90
20610;DHT22;10463;52.378;9.688;2022-11-15T15:53:13;26.10;27.40
20610;DHT22;10463;52.378;9.688;2022-11-15T15:55:57;26.10;26.90
20610;DHT22;10463;52.378;9.688;2022-11-15T15:58:42;26.10;26.80
20610;DHT22;10463;52.378;9.688;2022-11-15T16:01:27;26.10;26.80
20610;DHT22;10463;52.378;9.688;2022-11-15T16:04:11;26.10;26.80
20610;DHT22;10463;52.378;9.688;2022-11-15T16:06:58;26.00;27.30
20610;DHT22;10463;52.378;9.688;2022-11-15T16:09:45;26.00;26.70
20610;DHT22;10463;52.378;9.688;2022-11-15T16:12:45;26.00;26.70
20610;DHT22;10463;52.378;9.688;2022-11-15T16:15:31;26.00;26.70
20610;DHT22;10463;52.378;9.688;2022-11-15T16:18:17;26.00;26.70
20610;DHT22;10463;52.378;9.688;2022-11-15T16:21:02;26.00;26.70
20610;DHT22;10463;52.378;9.688;2022-11-15T16:23:47;26.00;26.70
20610;DHT22;10463;52.378;9.688;2022-11-15T16:26:35;26.00;26.70
20610;DHT22;10463;52.378;9.688;2022-11-15T16:29:21;26.00;26.70
20610;DHT22;10463;52.378;9.688;2022-11-15T16:32:05;26.00;26.70
20610;DHT22;10463;52.378;9.688;2022-11-15T16:34:50;26.00;27.20
20610;DHT22;10463;52.378;9.688;2022-11-15T16:37:34;26.00;27.20
20610;DHT22;10463;52.378;9.688;2022-11-15T16:40:26;26.00;26.70
20610;DHT22;10463;52.378;9.688;2022-11-15T16:43:12;26.00;26.70
20610;DHT22;10463;52.378;9.688;2022-11-15T16:45:57;25.90;26.60
20610;DHT22;10463;52.378;9.688;2022-11-15T16:48:42;25.90;26.60
20610;DHT22;10463;52.378;9.688;2022-11-15T16:51:29;25.90;26.70
20610;DHT22;10463;52.378;9.688;2022-11-15T16:54:14;25.90;26.70
20610;DHT22;10463;52.378;9.688;2022-11-15T16:57:01;25.90;26.70
20610;DHT22;10463;52.378;9.688;2022-11-15T16:59:47;25.90;27.30
20610;DHT22;10463;52.378;9.688;2022-11-15T17:02:32;25.90;26.80
20610;DHT22;10463;52.378;9.688;2022-11-15T17:05:20;25.90;26.90
20610;DHT22;10463;52.378;9.688;2022-11-15T17:08:05;25.80;26.80
20610;DHT22;10463;52.378;9.688;2022-11-15T17:10:50;25.80;26.90
20610;DHT22;10463;52.378;9.688;2022-11-15T17:13:36;25.80;26.90
20610;DHT22;10463;52.378;9.688;2022-11-15T17:16:23;25.80;26.90
20610;DHT22;10463;52.378;9.688;2022-11-15T17:19:12;25.80;26.90
20610;DHT22;10463;52.378;9.688;2022-11-15T17:21:58;25.90;27.00
20610;DHT22;10463;52.378;9.688;2022-11-15T17:24:43;25.90;27.00
20610;DHT22;10463;52.378;9.688;2022-11-15T17:27:27;25.90;27.00
20610;DHT22;10463;52.378;9.688;2022-11-15T17:30:13;25.90;27.00
20610;DHT22;10463;52.378;9.688;2022-11-15T17:33:00;25.90;26.90
20610;DHT22;10463;52.378;9.688;2022-11-15T17:35:44;25.90;26.90
20610;DHT22;10463;52.378;9.688;2022-11-15T17:38:29;25.90;26.90
20610;DHT22;10463;52.378;9.688;2022-11-15T17:41:15;25.90;26.90
20610;DHT22;10463;52.378;9.688;2022-11-15T17:44:00;25.90;27.00
20610;DHT22;10463;52.378;9.688;2022-11-15T17:46:48;25.90;27.00
20610;DHT22;10463;52.378;9.688;2022-11-15T17:49:34;25.90;27.00
20610;DHT22;10463;52.378;9.688;2022-11-15T17:52:23;25.90;27.00
20610;DHT22;10463;52.378;9.688;2022-11-15T17:55:08;25.90;27.00
20610;DHT22;10463;52.378;9.688;2022-11-15T17:57:53;25.90;27.00
20610;DHT22;10463;52.378;9.688;2022-11-15T18:00:38;25.90;27.00
20610;DHT22;10463;52.378;9.688;2022-11-15T18:03:22;25.90;27.10
20610;DHT22;10463;52.378;9.688;2022-11-15T18:06:09;25.90;27.00
20610;DHT22;10463;52.378;9.688;2022-11-15T18:08:55;25.90;27.00
20610;DHT22;10463;52.378;9.688;2022-11-15T18:11:41;25.90;27.00
20610;DHT22;10463;52.378;9.688;2022-11-15T18:14:27;25.90;27.00
20610;DHT22;10463;52.378;9.688;2022-11-15T18:17:12;26.00;27.00
20610;DHT22;10463;52.378;9.688;2022-11-15T18:19:57;26.00;27.00
20610;DHT22;10463;52.378;9.688;2022-11-15T18:22:43;25.90;26.90
20610;DHT22;10463;52.378;9.688;2022-11-15T18:25:28;25.90;26.90
20610;DHT22;10463;52.378;9.688;2022-11-15T18:28:13;25.90;26.90
20610;DHT22;10463;52.378;9.688;2022-11-15T18:30:58;25.90;26.90
20610;DHT22;10463;52.378;9.688;2022-11-15T18:33:44;25.90;26.90
20610;DHT22;10463;52.378;9.688;2022-11-15T18:36:30;25.90;26.90
20610;DHT22;10463;52.378;9.688;2022-11-15T18:39:16;25.90;26.90
20610;DHT22;10463;52.378;9.688;2022-11-15T18:42:01;25.90;26.90
20610;DHT22;10463;52.378;9.688;2022-11-15T18:44:47;25.90;26.80
20610;DHT22;10463;52.378;9.688;2022-11-15T18:47:31;25.90;26.80